createdAt,value
2018-09-04T00:02:18.419Z,16.82
2018-09-04T00:05:29.687Z,15.13
2018-09-04T00:08:40.859Z,21.07
2018-09-04T00:11:52.495Z,15.88
2018-09-04T00:15:03.528Z,17.10
2018-09-04T00:18:14.856Z,17.65
2018-09-04T00:21:27.270Z,18.30
2018-09-04T00:24:39.257Z,14.30
2018-09-04T00:27:50.643Z,15.80
2018-09-04T00:31:02.094Z,15.68
2018-09-04T00:34:13.956Z,13.83
2018-09-04T00:37:25.559Z,16.57
2018-09-04T00:40:37.529Z,17.50
2018-09-04T00:43:48.835Z,17.20
2018-09-04T00:47:00.295Z,17.23
2018-09-04T00:50:12.260Z,15.60
2018-09-04T00:53:23.586Z,15.25
2018-09-04T00:56:34.711Z,13.88
2018-09-04T00:59:45.912Z,13.95
2018-09-04T01:02:58.815Z,15.83
2018-09-04T01:06:10.211Z,15.18
2018-09-04T01:09:23.222Z,12.98
2018-09-04T01:12:34.915Z,18.42
2018-09-04T01:15:46.051Z,16.55
2018-09-04T01:18:57.552Z,14.00
2018-09-04T01:22:10.060Z,17.27
2018-09-04T01:25:21.399Z,14.25
2018-09-04T01:28:32.532Z,15.43
2018-09-04T01:31:44.112Z,15.68
2018-09-04T01:34:55.343Z,15.28
2018-09-04T01:38:06.863Z,13.78
2018-09-04T01:41:18.767Z,15.40
2018-09-04T01:44:30.176Z,13.95
2018-09-04T01:47:41.972Z,13.65
2018-09-04T01:50:53.990Z,17.65
2018-09-04T01:54:06.145Z,22.52
2018-09-04T01:57:18.000Z,15.55
2018-09-04T02:00:36.713Z,18.25
2018-09-04T02:03:48.211Z,18.95
2018-09-04T02:06:59.451Z,16.73
2018-09-04T02:10:11.391Z,16.35
2018-09-04T02:13:22.438Z,16.97
2018-09-04T02:16:33.971Z,17.95
2018-09-04T02:19:45.786Z,19.52
2018-09-04T02:22:57.430Z,20.43
2018-09-04T02:26:08.559Z,19.45
2018-09-04T02:29:19.702Z,19.73
2018-09-04T02:32:31.090Z,19.30
2018-09-04T02:35:42.401Z,20.17
2018-09-04T02:38:53.746Z,21.55
2018-09-04T02:42:05.260Z,19.12
2018-09-04T02:45:17.370Z,21.30
2018-09-04T02:48:28.816Z,25.77
2018-09-04T02:51:39.975Z,23.45
2018-09-04T02:54:51.699Z,20.55
2018-09-04T02:58:02.939Z,17.52
2018-09-04T03:01:14.258Z,18.37
2018-09-04T03:04:25.492Z,20.15
2018-09-04T03:07:37.372Z,21.00
2018-09-04T03:10:48.961Z,20.52
2018-09-04T03:14:00.744Z,17.55
2018-09-04T03:17:11.885Z,21.00
2018-09-04T03:20:22.955Z,20.72
2018-09-04T03:23:34.515Z,21.95
2018-09-04T03:26:46.389Z,20.02
2018-09-04T03:29:57.844Z,20.55
2018-09-04T03:33:09.045Z,20.35
2018-09-04T03:36:20.396Z,18.75
2018-09-04T03:39:32.591Z,18.65
2018-09-04T03:42:43.999Z,22.17
2018-09-04T03:45:55.669Z,20.65
2018-09-04T03:49:08.908Z,26.87
2018-09-04T03:52:20.633Z,22.60
2018-09-04T03:55:33.181Z,27.73
2018-09-04T03:58:45.086Z,22.32
2018-09-04T04:01:56.966Z,22.37
2018-09-04T04:05:08.683Z,22.30
2018-09-04T04:08:20.357Z,23.60
2018-09-04T04:11:31.615Z,21.40
2018-09-04T04:14:42.807Z,20.55
2018-09-04T04:17:53.876Z,20.55
2018-09-04T04:21:04.993Z,24.77
2018-09-04T04:24:16.771Z,22.87
2018-09-04T04:27:27.971Z,22.85
2018-09-04T04:30:39.057Z,25.70
2018-09-04T04:33:50.646Z,24.27
2018-09-04T04:37:01.824Z,28.47
2018-09-04T04:40:13.354Z,25.20
2018-09-04T04:43:24.650Z,23.70
2018-09-04T04:46:37.291Z,23.45
2018-09-04T04:49:49.026Z,25.27
2018-09-04T04:53:00.257Z,29.85
2018-09-04T04:56:16.952Z,26.90
2018-09-04T04:59:28.151Z,24.07
2018-09-04T05:02:39.790Z,23.35
2018-09-04T05:05:51.101Z,24.65
2018-09-04T05:09:03.205Z,23.07
2018-09-04T05:12:14.556Z,31.25
2018-09-04T05:15:25.806Z,30.37
2018-09-04T05:18:37.863Z,30.40
2018-09-04T05:21:49.336Z,28.85
2018-09-04T05:25:01.158Z,30.23
2018-09-04T05:28:13.060Z,33.73
2018-09-04T05:31:24.928Z,34.85
2018-09-04T05:34:36.202Z,28.57
2018-09-04T05:37:48.088Z,31.10
2018-09-04T05:40:59.270Z,34.05
2018-09-04T05:44:10.534Z,31.97
2018-09-04T05:47:22.333Z,31.68
2018-09-04T05:50:33.487Z,33.18
2018-09-04T05:53:45.478Z,37.13
2018-09-04T05:56:56.750Z,40.12
2018-09-04T06:00:12.224Z,37.95
2018-09-04T06:03:23.602Z,37.67
2018-09-04T06:06:34.654Z,43.02
2018-09-04T06:09:45.829Z,39.60
2018-09-04T06:12:58.086Z,46.55
2018-09-04T06:16:09.505Z,41.48
2018-09-04T06:19:21.015Z,45.45
2018-09-04T06:22:32.881Z,45.50
2018-09-04T06:25:44.963Z,39.05
2018-09-04T06:28:56.821Z,42.48
2018-09-04T06:32:08.241Z,44.27
2018-09-04T06:35:19.916Z,42.25
2018-09-04T06:38:31.798Z,43.05
2018-09-04T06:41:43.431Z,37.33
2018-09-04T06:44:54.659Z,40.28
2018-09-04T06:48:06.697Z,46.73
2018-09-04T06:51:18.696Z,39.27
2018-09-04T06:54:30.439Z,40.55
2018-09-04T06:57:42.215Z,43.13
2018-09-04T07:00:53.684Z,41.98
2018-09-04T07:04:05.382Z,40.12
2018-09-04T07:07:16.539Z,43.08
2018-09-04T07:10:27.617Z,46.18
2018-09-04T07:13:38.814Z,46.55
2018-09-04T07:16:50.815Z,38.05
2018-09-04T07:20:02.921Z,42.73
2018-09-04T07:23:14.912Z,38.65
2018-09-04T07:26:26.757Z,41.18
2018-09-04T07:29:38.056Z,38.63
2018-09-04T07:32:49.401Z,37.65
2018-09-04T07:36:01.302Z,40.45
2018-09-04T07:39:13.410Z,36.85
2018-09-04T07:42:25.409Z,44.70
2018-09-04T07:45:37.515Z,43.10
2018-09-04T07:48:49.498Z,41.18
2018-09-04T07:52:00.771Z,43.23
2018-09-04T07:55:12.694Z,40.92
2018-09-04T07:58:24.515Z,41.45
2018-09-04T08:01:35.691Z,39.73
2018-09-04T08:04:47.230Z,38.28
2018-09-04T08:07:59.247Z,41.60
2018-09-04T08:11:11.284Z,37.67
2018-09-04T08:14:22.337Z,42.98
2018-09-04T08:17:33.412Z,49.25
2018-09-04T08:20:44.665Z,41.63
2018-09-04T08:23:56.528Z,41.77
2018-09-04T08:27:08.092Z,37.65
2018-09-04T08:30:19.797Z,42.60
2018-09-04T08:33:31.041Z,41.37
2018-09-04T08:36:42.067Z,48.45
2018-09-04T08:39:53.237Z,42.17
2018-09-04T08:43:05.128Z,42.45
2018-09-04T08:46:16.727Z,38.15
2018-09-04T08:49:27.958Z,45.25
2018-09-04T08:52:39.050Z,36.75
2018-09-04T08:55:51.088Z,43.98
2018-09-04T08:59:02.356Z,42.20
2018-09-04T09:02:14.309Z,39.05
2018-09-04T09:05:25.572Z,39.75
2018-09-04T09:08:37.726Z,42.78
2018-09-04T09:11:48.816Z,40.43
2018-09-04T09:15:00.259Z,41.73
2018-09-04T09:18:11.627Z,39.00
2018-09-04T09:21:23.286Z,39.08
2018-09-04T09:24:35.231Z,36.80
2018-09-04T09:27:47.665Z,42.58
2018-09-04T09:30:59.426Z,35.63
2018-09-04T09:34:11.284Z,39.33
2018-09-04T09:37:23.041Z,35.13
2018-09-04T09:40:34.592Z,32.73
2018-09-04T09:43:46.303Z,33.50
2018-09-04T09:47:03.193Z,36.08
2018-09-04T09:50:14.636Z,32.58
2018-09-04T09:53:25.936Z,32.63
2018-09-04T09:56:37.821Z,32.60
2018-09-04T09:59:49.182Z,32.10
2018-09-04T10:03:04.236Z,32.45
2018-09-04T10:06:16.660Z,41.15
2018-09-04T10:09:28.043Z,33.25
2018-09-04T10:12:39.440Z,30.88
2018-09-04T10:15:50.535Z,35.65
2018-09-04T10:19:02.862Z,38.30
2018-09-04T10:22:14.157Z,34.67
2018-09-04T10:25:25.281Z,29.95
2018-09-04T10:28:37.677Z,27.30
2018-09-04T10:31:48.679Z,32.03
2018-09-04T10:34:59.890Z,27.95
2018-09-04T10:38:11.490Z,27.32
2018-09-04T10:41:23.637Z,26.48
2018-09-04T10:44:34.684Z,25.80
2018-09-04T10:47:45.799Z,19.93
2018-09-04T10:50:57.192Z,26.50
2018-09-04T10:54:09.012Z,28.25
2018-09-04T10:57:20.259Z,22.45
2018-09-04T11:00:31.653Z,24.65
2018-09-04T11:03:43.358Z,25.23
2018-09-04T11:06:54.403Z,27.07
2018-09-04T11:10:05.604Z,28.03
2018-09-04T11:13:16.587Z,31.00
2018-09-04T11:16:27.798Z,29.80
2018-09-04T11:19:38.971Z,33.98
2018-09-04T11:22:49.764Z,28.70
2018-09-04T11:26:01.533Z,29.52
2018-09-04T11:29:14.447Z,31.05
2018-09-04T11:32:26.085Z,27.65
2018-09-04T11:35:38.142Z,32.28
2018-09-04T11:38:49.424Z,39.67
2018-09-04T11:42:00.539Z,36.75
2018-09-04T11:45:12.529Z,35.40
2018-09-04T11:48:24.242Z,31.70
2018-09-04T11:51:35.551Z,24.45
2018-09-04T11:54:46.852Z,30.27
2018-09-04T11:57:58.028Z,15.63
2018-09-04T12:01:11.352Z,31.57
2018-09-04T12:04:22.681Z,26.47
2018-09-04T12:07:34.232Z,28.83
2018-09-04T12:10:45.450Z,30.12
2018-09-04T12:13:57.273Z,25.12
2018-09-04T12:17:09.293Z,27.50
2018-09-04T12:20:29.842Z,17.85
2018-09-04T12:23:41.412Z,23.50
2018-09-04T12:26:53.396Z,22.70
2018-09-04T12:30:05.999Z,23.57
2018-09-04T12:33:17.158Z,22.47
2018-09-04T12:36:28.241Z,19.67
2018-09-04T12:39:43.849Z,26.42
2018-09-04T12:42:55.230Z,17.25
2018-09-04T12:46:07.038Z,20.67
2018-09-04T12:49:18.503Z,20.10
2018-09-04T12:52:30.412Z,18.10
2018-09-04T12:55:41.702Z,20.37
2018-09-04T12:58:53.087Z,19.52
2018-09-04T13:02:03.856Z,18.60
2018-09-04T13:05:15.989Z,17.48
2018-09-04T13:08:29.345Z,20.43
2018-09-04T13:11:40.735Z,19.73
2018-09-04T13:14:51.541Z,19.20
2018-09-04T13:18:03.232Z,17.95
2018-09-04T13:21:14.973Z,20.23
2018-09-04T13:24:26.464Z,15.50
2018-09-04T13:27:37.597Z,18.40
2018-09-04T13:30:49.843Z,15.93
2018-09-04T13:34:00.728Z,17.33
2018-09-04T13:37:12.233Z,17.23
2018-09-04T13:40:24.165Z,18.00
2018-09-04T13:43:36.318Z,20.40
2018-09-04T13:46:47.752Z,16.87
2018-09-04T13:49:59.217Z,15.23
2018-09-04T13:53:11.033Z,15.93
2018-09-04T13:56:22.194Z,14.93
2018-09-04T13:59:33.999Z,15.15
2018-09-04T14:02:45.010Z,13.37
2018-09-04T14:05:55.808Z,14.67
2018-09-04T14:09:08.502Z,14.50
2018-09-04T14:12:19.820Z,10.43
2018-09-04T14:15:31.632Z,17.37
2018-09-04T14:19:05.204Z,14.70
2018-09-04T14:22:20.055Z,14.10
2018-09-04T14:25:32.264Z,14.30
2018-09-04T14:28:43.776Z,13.27
2018-09-04T14:31:55.396Z,13.10
2018-09-04T14:35:08.351Z,13.63
2018-09-04T14:38:19.256Z,14.27
2018-09-04T14:41:30.218Z,12.70
2018-09-04T14:44:41.242Z,12.57
2018-09-04T14:47:52.615Z,10.70
2018-09-04T14:51:04.580Z,12.90
2018-09-04T14:54:15.644Z,11.33
2018-09-04T14:57:27.330Z,13.30
2018-09-04T15:00:38.375Z,12.00
2018-09-04T15:03:49.576Z,9.47
2018-09-04T15:07:00.783Z,11.57
2018-09-04T15:10:11.967Z,10.60
2018-09-04T15:13:23.115Z,13.90
2018-09-04T15:16:34.050Z,13.73
2018-09-04T15:19:45.192Z,14.30
2018-09-04T15:22:57.297Z,11.67
2018-09-04T15:26:08.744Z,12.83
2018-09-04T15:29:19.558Z,9.90
2018-09-04T15:32:31.518Z,9.90
2018-09-04T15:35:43.187Z,10.23
2018-09-04T15:38:54.198Z,11.60
2018-09-04T15:42:05.943Z,14.90
2018-09-04T15:45:17.332Z,12.70
2018-09-04T15:48:28.896Z,13.45
2018-09-04T15:51:39.952Z,13.67
2018-09-04T15:54:51.117Z,8.60
2018-09-04T15:58:02.908Z,10.57
2018-09-04T16:01:14.516Z,13.63
2018-09-04T16:04:25.738Z,12.07
2018-09-04T16:07:36.679Z,11.37
2018-09-04T16:10:47.933Z,13.40
2018-09-04T16:13:59.541Z,12.03
2018-09-04T16:17:11.191Z,11.68
2018-09-04T16:20:22.871Z,10.80
2018-09-04T16:23:34.268Z,11.80
2018-09-04T16:26:45.617Z,10.35
2018-09-04T16:29:58.633Z,13.45
2018-09-04T16:33:12.869Z,10.10
2018-09-04T16:36:29.614Z,12.58
2018-09-04T16:39:46.144Z,12.13
2018-09-04T16:42:59.932Z,10.38
2018-09-04T16:46:12.646Z,11.48
2018-09-04T16:49:25.878Z,13.58
2018-09-04T16:52:38.218Z,13.25
2018-09-04T16:55:50.611Z,12.30
2018-09-04T16:59:02.730Z,14.65
2018-09-04T17:02:14.432Z,13.05
2018-09-04T17:05:25.831Z,14.05
2018-09-04T17:08:37.806Z,12.60
2018-09-04T17:11:49.292Z,15.40
2018-09-04T17:15:00.600Z,15.40
2018-09-04T17:22:49.606Z,14.35
2018-09-04T17:26:01.214Z,15.13
2018-09-04T17:29:13.225Z,13.43
2018-09-04T17:32:24.316Z,15.40
2018-09-04T17:35:35.984Z,15.85
2018-09-04T17:38:47.870Z,14.80
2018-09-04T17:41:59.388Z,15.95
2018-09-04T17:45:10.563Z,13.45
2018-09-04T17:48:22.004Z,12.15
2018-09-04T17:51:33.785Z,12.37
2018-09-04T17:54:45.039Z,16.82
2018-09-04T17:57:57.632Z,18.48
2018-09-04T18:01:08.953Z,17.10
2018-09-04T18:04:20.744Z,16.30
2018-09-04T18:07:32.693Z,19.07
2018-09-04T18:10:44.694Z,16.97
2018-09-04T18:13:56.468Z,12.98
2018-09-04T18:17:08.939Z,14.10
2018-09-04T18:20:20.314Z,12.98
2018-09-04T18:23:32.502Z,16.30
2018-09-04T18:26:44.074Z,16.17
2018-09-04T18:29:55.660Z,15.75
2018-09-04T18:33:07.599Z,18.60
2018-09-04T18:36:19.499Z,13.60
2018-09-04T18:39:31.364Z,16.15
2018-09-04T18:42:43.169Z,15.08
2018-09-04T18:45:56.965Z,15.98
2018-09-04T18:49:08.937Z,15.38
2018-09-04T18:52:20.097Z,16.17
2018-09-04T18:55:31.829Z,17.27
2018-09-04T18:58:43.335Z,16.60
2018-09-04T19:01:56.191Z,14.20
2018-09-04T19:05:08.157Z,15.05
2018-09-04T19:09:45.764Z,14.83
2018-09-04T19:12:57.458Z,14.35
2018-09-04T19:16:09.786Z,16.75
2018-09-04T19:19:21.392Z,16.00
2018-09-04T19:22:33.460Z,18.17
2018-09-04T19:25:44.600Z,16.93
2018-09-04T19:28:56.464Z,17.15
2018-09-04T19:32:07.841Z,17.30
2018-09-04T19:35:19.219Z,17.95
2018-09-04T19:38:31.498Z,14.55
2018-09-04T19:41:43.273Z,18.17
2018-09-04T19:44:54.545Z,19.30
2018-09-04T19:48:09.080Z,17.37
2018-09-04T19:51:21.098Z,17.90
2018-09-04T19:54:32.710Z,18.27
2018-09-04T19:57:44.478Z,19.48
2018-09-04T20:00:56.699Z,15.88
2018-09-04T20:04:08.912Z,15.78
2018-09-04T20:07:20.394Z,16.73
2018-09-04T20:10:32.453Z,20.97
2018-09-04T20:13:44.405Z,19.60
2018-09-04T20:16:55.648Z,18.07
2018-09-04T20:20:07.695Z,14.10
2018-09-04T20:23:19.696Z,14.63
2018-09-04T20:26:31.626Z,15.10
2018-09-04T20:29:43.357Z,14.78
2018-09-04T20:32:55.431Z,17.25
2018-09-04T20:36:07.664Z,13.80
2018-09-04T20:39:19.676Z,15.48
2018-09-04T20:42:31.604Z,16.40
2018-09-04T20:45:43.778Z,14.78
2018-09-04T20:48:54.914Z,14.90
2018-09-04T20:52:06.690Z,16.52
2018-09-04T20:55:18.304Z,15.43
2018-09-04T20:58:46.453Z,15.60
2018-09-04T21:02:15.454Z,15.10
2018-09-04T21:05:44.411Z,16.30
2018-09-04T21:09:03.542Z,14.20
2018-09-04T21:12:15.131Z,17.30
2018-09-04T21:15:26.545Z,15.88
2018-09-04T21:18:37.623Z,16.82
2018-09-04T21:21:48.833Z,15.10
2018-09-04T21:25:01.170Z,15.70
2018-09-04T21:28:12.633Z,15.38
2018-09-04T21:31:24.595Z,14.87
2018-09-04T21:34:36.032Z,13.05
2018-09-04T21:37:48.067Z,19.35
2018-09-04T21:41:00.339Z,15.38
2018-09-04T21:44:12.231Z,14.28
2018-09-04T21:47:23.591Z,18.17
2018-09-04T21:50:34.944Z,15.50
2018-09-04T21:53:46.855Z,15.72
2018-09-04T21:56:58.879Z,15.40
2018-09-04T22:00:10.711Z,16.37
2018-09-04T22:03:21.848Z,12.82
2018-09-04T22:06:33.565Z,14.40
2018-09-04T22:09:45.283Z,14.28
2018-09-04T22:12:56.776Z,16.35
2018-09-04T22:16:08.507Z,15.03
2018-09-04T22:19:20.017Z,16.20
2018-09-04T22:22:31.008Z,13.85
2018-09-04T22:25:43.009Z,17.92
2018-09-04T22:28:54.166Z,14.50
2018-09-04T22:32:05.413Z,15.63
2018-09-04T22:35:17.256Z,14.80
2018-09-04T22:38:29.125Z,15.28
2018-09-04T22:41:42.346Z,15.68
2018-09-04T22:44:54.305Z,17.70
2018-09-04T22:48:05.408Z,14.23
2018-09-04T22:51:22.820Z,17.60
2018-09-04T22:54:33.800Z,14.13
2018-09-04T22:57:45.383Z,14.63
2018-09-04T23:00:57.229Z,14.18
2018-09-04T23:04:08.697Z,14.00
2018-09-04T23:07:20.843Z,15.32
2018-09-04T23:10:31.969Z,17.05
2018-09-04T23:13:43.991Z,16.70
2018-09-04T23:16:55.077Z,17.05
2018-09-04T23:20:06.763Z,15.03
2018-09-04T23:23:18.735Z,17.32
2018-09-04T23:26:30.518Z,17.60
2018-09-04T23:29:41.674Z,13.18
2018-09-04T23:32:52.784Z,15.45
2018-09-04T23:36:04.858Z,17.05
2018-09-04T23:39:16.137Z,17.70
2018-09-04T23:42:32.677Z,15.68
2018-09-04T23:45:43.784Z,13.85
2018-09-04T23:48:55.685Z,14.70
2018-09-04T23:52:07.137Z,18.50
2018-09-04T23:55:18.424Z,20.23
2018-09-04T23:58:29.970Z,15.08
